sensor_id;sensor_type;location;lat;lon;timestamp;P1;durP1;ratioP1;P2;durP2;ratioP2
11675;SDS011;5894;42.768;23.404;2023-08-06T00:01:59;4.20;;;3.00;;
11675;SDS011;5894;42.768;23.404;2023-08-06T00:04:26;4.63;;;3.42;;
11675;SDS011;5894;42.768;23.404;2023-08-06T00:06:54;6.22;;;3.30;;
11675;SDS011;5894;42.768;23.404;2023-08-06T00:09:21;4.50;;;2.97;;
11675;SDS011;5894;42.768;23.404;2023-08-06T00:11:48;3.97;;;3.08;;
11675;SDS011;5894;42.768;23.404;2023-08-06T00:14:15;4.45;;;3.25;;
11675;SDS011;5894;42.768;23.404;2023-08-06T00:16:44;5.55;;;3.45;;
11675;SDS011;5894;42.768;23.404;2023-08-06T00:19:11;3.50;;;3.20;;
11675;SDS011;5894;42.768;23.404;2023-08-06T00:21:38;5.43;;;3.22;;
11675;SDS011;5894;42.768;23.404;2023-08-06T00:24:06;5.53;;;3.10;;
11675;SDS011;5894;42.768;23.404;2023-08-06T00:26:33;4.82;;;3.20;;
11675;SDS011;5894;42.768;23.404;2023-08-06T00:29:00;5.03;;;3.53;;
11675;SDS011;5894;42.768;23.404;2023-08-06T00:31:27;6.68;;;3.65;;
11675;SDS011;5894;42.768;23.404;2023-08-06T00:33:55;6.90;;;3.17;;
11675;SDS011;5894;42.768;23.404;2023-08-06T00:36:22;3.88;;;3.13;;
11675;SDS011;5894;42.768;23.404;2023-08-06T00:38:49;4.75;;;3.22;;
11675;SDS011;5894;42.768;23.404;2023-08-06T00:41:17;7.78;;;3.35;;
11675;SDS011;5894;42.768;23.404;2023-08-06T00:43:44;4.80;;;3.25;;
11675;SDS011;5894;42.768;23.404;2023-08-06T00:46:11;4.63;;;3.20;;
11675;SDS011;5894;42.768;23.404;2023-08-06T00:48:38;4.20;;;3.47;;
11675;SDS011;5894;42.768;23.404;2023-08-06T00:51:10;6.15;;;3.50;;
11675;SDS011;5894;42.768;23.404;2023-08-06T00:53:38;3.80;;;3.33;;
11675;SDS011;5894;42.768;23.404;2023-08-06T00:56:06;5.40;;;3.40;;
11675;SDS011;5894;42.768;23.404;2023-08-06T00:58:34;4.10;;;3.17;;
11675;SDS011;5894;42.768;23.404;2023-08-06T01:01:02;5.95;;;3.30;;
11675;SDS011;5894;42.768;23.404;2023-08-06T01:03:29;6.63;;;3.55;;
11675;SDS011;5894;42.768;23.404;2023-08-06T01:05:57;4.43;;;3.00;;
11675;SDS011;5894;42.768;23.404;2023-08-06T01:08:30;5.20;;;3.40;;
11675;SDS011;5894;42.768;23.404;2023-08-06T01:11:15;4.00;;;3.30;;
11675;SDS011;5894;42.768;23.404;2023-08-06T01:13:54;7.38;;;3.70;;
11675;SDS011;5894;42.768;23.404;2023-08-06T01:16:28;5.13;;;3.25;;
11675;SDS011;5894;42.768;23.404;2023-08-06T01:18:57;3.40;;;2.97;;
11675;SDS011;5894;42.768;23.404;2023-08-06T01:21:26;4.18;;;3.50;;
11675;SDS011;5894;42.768;23.404;2023-08-06T01:23:54;4.15;;;3.25;;
11675;SDS011;5894;42.768;23.404;2023-08-06T01:26:23;7.93;;;3.58;;
11675;SDS011;5894;42.768;23.404;2023-08-06T01:28:59;5.53;;;3.58;;
11675;SDS011;5894;42.768;23.404;2023-08-06T01:31:34;5.43;;;3.80;;
11675;SDS011;5894;42.768;23.404;2023-08-06T01:34:05;6.20;;;3.58;;
11675;SDS011;5894;42.768;23.404;2023-08-06T01:36:37;5.20;;;3.38;;
11675;SDS011;5894;42.768;23.404;2023-08-06T01:39:05;4.95;;;3.53;;
11675;SDS011;5894;42.768;23.404;2023-08-06T01:41:32;6.95;;;3.42;;
11675;SDS011;5894;42.768;23.404;2023-08-06T01:43:59;5.18;;;3.50;;
11675;SDS011;5894;42.768;23.404;2023-08-06T01:46:26;5.88;;;3.63;;
11675;SDS011;5894;42.768;23.404;2023-08-06T01:48:53;3.95;;;3.40;;
11675;SDS011;5894;42.768;23.404;2023-08-06T01:51:20;5.50;;;3.92;;
11675;SDS011;5894;42.768;23.404;2023-08-06T01:53:49;5.72;;;3.63;;
11675;SDS011;5894;42.768;23.404;2023-08-06T01:56:17;6.68;;;4.40;;
11675;SDS011;5894;42.768;23.404;2023-08-06T01:58:44;5.07;;;3.60;;
11675;SDS011;5894;42.768;23.404;2023-08-06T02:01:12;4.47;;;4.05;;
11675;SDS011;5894;42.768;23.404;2023-08-06T02:03:39;4.60;;;3.40;;
11675;SDS011;5894;42.768;23.404;2023-08-06T02:06:06;4.15;;;3.50;;
11675;SDS011;5894;42.768;23.404;2023-08-06T02:08:33;6.65;;;3.78;;
11675;SDS011;5894;42.768;23.404;2023-08-06T02:11:01;5.30;;;3.30;;
11675;SDS011;5894;42.768;23.404;2023-08-06T02:13:30;3.90;;;3.50;;
11675;SDS011;5894;42.768;23.404;2023-08-06T02:15:57;4.10;;;3.70;;
11675;SDS011;5894;42.768;23.404;2023-08-06T02:18:24;5.40;;;3.85;;
11675;SDS011;5894;42.768;23.404;2023-08-06T02:20:55;5.32;;;4.07;;
11675;SDS011;5894;42.768;23.404;2023-08-06T02:23:23;6.78;;;3.88;;
11675;SDS011;5894;42.768;23.404;2023-08-06T02:25:56;7.00;;;3.90;;
11675;SDS011;5894;42.768;23.404;2023-08-06T02:28:28;10.15;;;3.90;;
11675;SDS011;5894;42.768;23.404;2023-08-06T02:30:56;5.90;;;3.60;;
11675;SDS011;5894;42.768;23.404;2023-08-06T02:33:23;7.45;;;4.35;;
11675;SDS011;5894;42.768;23.404;2023-08-06T02:35:50;6.75;;;3.80;;
11675;SDS011;5894;42.768;23.404;2023-08-06T02:38:17;6.53;;;3.80;;
11675;SDS011;5894;42.768;23.404;2023-08-06T02:40:44;6.75;;;3.90;;
11675;SDS011;5894;42.768;23.404;2023-08-06T02:43:13;13.20;;;4.38;;
11675;SDS011;5894;42.768;23.404;2023-08-06T02:45:41;7.47;;;4.38;;
11675;SDS011;5894;42.768;23.404;2023-08-06T02:48:08;6.03;;;3.88;;
11675;SDS011;5894;42.768;23.404;2023-08-06T02:50:38;4.35;;;3.40;;
11675;SDS011;5894;42.768;23.404;2023-08-06T02:53:06;7.15;;;4.10;;
11675;SDS011;5894;42.768;23.404;2023-08-06T02:55:34;10.85;;;5.13;;
11675;SDS011;5894;42.768;23.404;2023-08-06T02:58:06;7.70;;;4.20;;
11675;SDS011;5894;42.768;23.404;2023-08-06T03:00:39;8.52;;;4.18;;
11675;SDS011;5894;42.768;23.404;2023-08-06T03:03:08;12.02;;;4.50;;
11675;SDS011;5894;42.768;23.404;2023-08-06T03:05:55;6.30;;;3.58;;
11675;SDS011;5894;42.768;23.404;2023-08-06T03:08:32;7.28;;;3.90;;
11675;SDS011;5894;42.768;23.404;2023-08-06T03:10:59;4.43;;;3.33;;
11675;SDS011;5894;42.768;23.404;2023-08-06T03:13:27;4.35;;;3.25;;
11675;SDS011;5894;42.768;23.404;2023-08-06T03:15:56;5.65;;;3.60;;
11675;SDS011;5894;42.768;23.404;2023-08-06T03:18:26;4.68;;;3.90;;
11675;SDS011;5894;42.768;23.404;2023-08-06T03:20:56;4.88;;;3.50;;
11675;SDS011;5894;42.768;23.404;2023-08-06T03:23:27;6.35;;;3.78;;
11675;SDS011;5894;42.768;23.404;2023-08-06T03:25:54;5.32;;;3.97;;
11675;SDS011;5894;42.768;23.404;2023-08-06T03:28:21;5.10;;;4.03;;
11675;SDS011;5894;42.768;23.404;2023-08-06T03:30:48;4.28;;;3.95;;
11675;SDS011;5894;42.768;23.404;2023-08-06T03:33:33;5.13;;;3.72;;
11675;SDS011;5894;42.768;23.404;2023-08-06T03:36:02;6.28;;;4.30;;
11675;SDS011;5894;42.768;23.404;2023-08-06T03:38:32;7.88;;;3.75;;
11675;SDS011;5894;42.768;23.404;2023-08-06T03:41:02;7.15;;;4.13;;
11675;SDS011;5894;42.768;23.404;2023-08-06T03:43:29;8.43;;;4.20;;
11675;SDS011;5894;42.768;23.404;2023-08-06T03:45:57;4.22;;;3.83;;
11675;SDS011;5894;42.768;23.404;2023-08-06T03:48:26;4.55;;;4.07;;
11675;SDS011;5894;42.768;23.404;2023-08-06T03:50:53;4.90;;;3.85;;
11675;SDS011;5894;42.768;23.404;2023-08-06T03:53:21;8.23;;;4.10;;
11675;SDS011;5894;42.768;23.404;2023-08-06T03:55:48;6.13;;;3.90;;
11675;SDS011;5894;42.768;23.404;2023-08-06T03:58:15;4.07;;;3.63;;
11675;SDS011;5894;42.768;23.404;2023-08-06T04:00:42;3.83;;;3.38;;
11675;SDS011;5894;42.768;23.404;2023-08-06T04:03:10;5.43;;;3.88;;
11675;SDS011;5894;42.768;23.404;2023-08-06T04:05:38;4.07;;;3.53;;
11675;SDS011;5894;42.768;23.404;2023-08-06T04:08:05;3.58;;;3.08;;
11675;SDS011;5894;42.768;23.404;2023-08-06T04:10:33;4.70;;;3.53;;
11675;SDS011;5894;42.768;23.404;2023-08-06T04:13:00;5.43;;;3.70;;
11675;SDS011;5894;42.768;23.404;2023-08-06T04:15:28;4.65;;;4.10;;
11675;SDS011;5894;42.768;23.404;2023-08-06T04:17:56;4.40;;;3.95;;
11675;SDS011;5894;42.768;23.404;2023-08-06T04:20:24;4.72;;;3.83;;
11675;SDS011;5894;42.768;23.404;2023-08-06T04:22:53;4.40;;;3.88;;
11675;SDS011;5894;42.768;23.404;2023-08-06T04:25:21;4.93;;;3.75;;
11675;SDS011;5894;42.768;23.404;2023-08-06T04:27:50;4.50;;;4.10;;
11675;SDS011;5894;42.768;23.404;2023-08-06T04:30:17;5.60;;;4.30;;
11675;SDS011;5894;42.768;23.404;2023-08-06T04:32:44;5.05;;;4.00;;
11675;SDS011;5894;42.768;23.404;2023-08-06T04:35:11;4.28;;;3.70;;
11675;SDS011;5894;42.768;23.404;2023-08-06T04:37:39;4.72;;;4.20;;
11675;SDS011;5894;42.768;23.404;2023-08-06T04:40:08;5.20;;;4.63;;
11675;SDS011;5894;42.768;23.404;2023-08-06T04:42:36;4.75;;;4.35;;
11675;SDS011;5894;42.768;23.404;2023-08-06T04:45:03;5.07;;;4.40;;
11675;SDS011;5894;42.768;23.404;2023-08-06T04:47:31;5.07;;;4.18;;
11675;SDS011;5894;42.768;23.404;2023-08-06T04:49:58;4.88;;;4.40;;
11675;SDS011;5894;42.768;23.404;2023-08-06T04:52:25;4.25;;;3.85;;
11675;SDS011;5894;42.768;23.404;2023-08-06T04:54:53;4.50;;;4.10;;
11675;SDS011;5894;42.768;23.404;2023-08-06T04:57:22;6.78;;;4.60;;
11675;SDS011;5894;42.768;23.404;2023-08-06T04:59:49;4.95;;;4.50;;
11675;SDS011;5894;42.768;23.404;2023-08-06T05:02:16;4.65;;;3.88;;
11675;SDS011;5894;42.768;23.404;2023-08-06T05:04:43;4.65;;;4.25;;
11675;SDS011;5894;42.768;23.404;2023-08-06T05:07:10;4.70;;;4.13;;
11675;SDS011;5894;42.768;23.404;2023-08-06T05:09:37;4.57;;;3.72;;
11675;SDS011;5894;42.768;23.404;2023-08-06T05:12:05;5.75;;;3.67;;
11675;SDS011;5894;42.768;23.404;2023-08-06T05:14:34;4.47;;;3.97;;
11675;SDS011;5894;42.768;23.404;2023-08-06T05:17:01;4.43;;;4.03;;
11675;SDS011;5894;42.768;23.404;2023-08-06T05:19:29;4.72;;;4.00;;
11675;SDS011;5894;42.768;23.404;2023-08-06T05:21:57;4.35;;;3.38;;
11675;SDS011;5894;42.768;23.404;2023-08-06T05:24:24;4.13;;;3.40;;
11675;SDS011;5894;42.768;23.404;2023-08-06T05:26:51;4.93;;;3.13;;
11675;SDS011;5894;42.768;23.404;2023-08-06T05:29:18;5.70;;;3.08;;
11675;SDS011;5894;42.768;23.404;2023-08-06T05:31:47;2.85;;;2.65;;
11675;SDS011;5894;42.768;23.404;2023-08-06T05:34:14;3.47;;;2.90;;
11675;SDS011;5894;42.768;23.404;2023-08-06T05:36:41;3.95;;;2.80;;
11675;SDS011;5894;42.768;23.404;2023-08-06T05:39:08;5.15;;;2.90;;
11675;SDS011;5894;42.768;23.404;2023-08-06T05:41:35;3.65;;;3.17;;
11675;SDS011;5894;42.768;23.404;2023-08-06T05:44:02;3.65;;;3.13;;
11675;SDS011;5894;42.768;23.404;2023-08-06T05:46:29;3.80;;;3.20;;
11675;SDS011;5894;42.768;23.404;2023-08-06T05:48:58;3.20;;;2.90;;
11675;SDS011;5894;42.768;23.404;2023-08-06T05:51:25;3.83;;;3.40;;
11675;SDS011;5894;42.768;23.404;2023-08-06T05:53:53;3.20;;;2.90;;
11675;SDS011;5894;42.768;23.404;2023-08-06T05:56:20;3.00;;;2.60;;
11675;SDS011;5894;42.768;23.404;2023-08-06T05:58:47;2.97;;;2.53;;
11675;SDS011;5894;42.768;23.404;2023-08-06T06:01:15;2.83;;;2.42;;
11675;SDS011;5894;42.768;23.404;2023-08-06T06:03:42;2.58;;;2.38;;
11675;SDS011;5894;42.768;23.404;2023-08-06T06:06:11;2.97;;;2.67;;
11675;SDS011;5894;42.768;23.404;2023-08-06T06:08:38;2.58;;;2.38;;
11675;SDS011;5894;42.768;23.404;2023-08-06T06:11:05;4.10;;;2.95;;
11675;SDS011;5894;42.768;23.404;2023-08-06T06:13:32;3.90;;;3.17;;
11675;SDS011;5894;42.768;23.404;2023-08-06T06:15:59;4.68;;;3.80;;
11675;SDS011;5894;42.768;23.404;2023-08-06T06:18:26;7.53;;;3.60;;
11675;SDS011;5894;42.768;23.404;2023-08-06T06:20:53;3.80;;;3.50;;
11675;SDS011;5894;42.768;23.404;2023-08-06T06:23:21;3.92;;;3.63;;
11675;SDS011;5894;42.768;23.404;2023-08-06T06:25:49;3.50;;;3.20;;
11675;SDS011;5894;42.768;23.404;2023-08-06T06:28:17;3.50;;;3.03;;
11675;SDS011;5894;42.768;23.404;2023-08-06T06:30:44;3.38;;;3.05;;
11675;SDS011;5894;42.768;23.404;2023-08-06T06:33:11;3.33;;;2.90;;
11675;SDS011;5894;42.768;23.404;2023-08-06T06:35:38;3.10;;;2.80;;
11675;SDS011;5894;42.768;23.404;2023-08-06T06:38:05;2.72;;;2.53;;
11675;SDS011;5894;42.768;23.404;2023-08-06T06:40:33;4.70;;;3.00;;
11675;SDS011;5894;42.768;23.404;2023-08-06T06:43:00;2.92;;;2.25;;
11675;SDS011;5894;42.768;23.404;2023-08-06T06:45:29;2.25;;;2.05;;
11675;SDS011;5894;42.768;23.404;2023-08-06T06:47:56;2.05;;;1.75;;
11675;SDS011;5894;42.768;23.404;2023-08-06T06:50:24;1.92;;;1.80;;
11675;SDS011;5894;42.768;23.404;2023-08-06T06:52:51;1.70;;;1.60;;
11675;SDS011;5894;42.768;23.404;2023-08-06T06:55:18;2.83;;;1.85;;
11675;SDS011;5894;42.768;23.404;2023-08-06T06:57:47;2.78;;;1.80;;
11675;SDS011;5894;42.768;23.404;2023-08-06T07:00:14;2.17;;;1.77;;
11675;SDS011;5894;42.768;23.404;2023-08-06T07:02:41;2.20;;;1.70;;
11675;SDS011;5894;42.768;23.404;2023-08-06T07:05:08;2.63;;;1.80;;
11675;SDS011;5894;42.768;23.404;2023-08-06T07:07:35;4.03;;;1.83;;
11675;SDS011;5894;42.768;23.404;2023-08-06T07:10:03;3.00;;;1.80;;
11675;SDS011;5894;42.768;23.404;2023-08-06T07:12:31;3.40;;;1.98;;
11675;SDS011;5894;42.768;23.404;2023-08-06T07:15:00;3.20;;;1.77;;
11675;SDS011;5894;42.768;23.404;2023-08-06T07:17:27;2.30;;;2.10;;
11675;SDS011;5894;42.768;23.404;2023-08-06T07:19:54;2.08;;;1.73;;
11675;SDS011;5894;42.768;23.404;2023-08-06T07:22:21;3.05;;;2.35;;
11675;SDS011;5894;42.768;23.404;2023-08-06T07:24:49;2.38;;;2.17;;
11675;SDS011;5894;42.768;23.404;2023-08-06T07:27:16;2.15;;;2.05;;
11675;SDS011;5894;42.768;23.404;2023-08-06T07:29:42;2.92;;;2.00;;
11675;SDS011;5894;42.768;23.404;2023-08-06T07:32:11;2.35;;;2.00;;
11675;SDS011;5894;42.768;23.404;2023-08-06T07:34:38;2.40;;;2.20;;
11675;SDS011;5894;42.768;23.404;2023-08-06T07:37:05;3.65;;;2.50;;
11675;SDS011;5894;42.768;23.404;2023-08-06T07:39:32;2.75;;;2.30;;
11675;SDS011;5894;42.768;23.404;2023-08-06T07:41:59;2.90;;;2.40;;
11675;SDS011;5894;42.768;23.404;2023-08-06T07:44:27;6.53;;;3.05;;
11675;SDS011;5894;42.768;23.404;2023-08-06T07:46:54;4.25;;;2.50;;
11675;SDS011;5894;42.768;23.404;2023-08-06T07:49:23;5.28;;;2.75;;
11675;SDS011;5894;42.768;23.404;2023-08-06T07:51:50;5.15;;;3.03;;
11675;SDS011;5894;42.768;23.404;2023-08-06T07:54:18;3.15;;;2.88;;
11675;SDS011;5894;42.768;23.404;2023-08-06T07:56:45;5.20;;;2.95;;
11675;SDS011;5894;42.768;23.404;2023-08-06T07:59:12;3.47;;;2.55;;
11675;SDS011;5894;42.768;23.404;2023-08-06T08:01:39;3.22;;;2.50;;
11675;SDS011;5894;42.768;23.404;2023-08-06T08:04:06;4.05;;;2.70;;
11675;SDS011;5894;42.768;23.404;2023-08-06T08:06:34;2.95;;;2.75;;
11675;SDS011;5894;42.768;23.404;2023-08-06T08:09:02;2.58;;;2.38;;
11675;SDS011;5894;42.768;23.404;2023-08-06T08:11:29;2.40;;;2.20;;
11675;SDS011;5894;42.768;23.404;2023-08-06T08:13:56;2.38;;;2.10;;
11675;SDS011;5894;42.768;23.404;2023-08-06T08:16:24;3.50;;;2.30;;
11675;SDS011;5894;42.768;23.404;2023-08-06T08:18:51;3.83;;;2.05;;
11675;SDS011;5894;42.768;23.404;2023-08-06T08:21:18;3.78;;;2.83;;
11675;SDS011;5894;42.768;23.404;2023-08-06T08:23:46;2.92;;;2.50;;
11675;SDS011;5894;42.768;23.404;2023-08-06T08:26:13;2.60;;;2.28;;
11675;SDS011;5894;42.768;23.404;2023-08-06T08:28:40;2.95;;;2.70;;
11675;SDS011;5894;42.768;23.404;2023-08-06T08:31:08;5.35;;;2.53;;
11675;SDS011;5894;42.768;23.404;2023-08-06T08:33:36;3.08;;;2.40;;
11675;SDS011;5894;42.768;23.404;2023-08-06T08:36:03;2.53;;;2.30;;
11675;SDS011;5894;42.768;23.404;2023-08-06T08:38:30;6.78;;;2.38;;
11675;SDS011;5894;42.768;23.404;2023-08-06T08:40:59;2.97;;;2.65;;
11675;SDS011;5894;42.768;23.404;2023-08-06T08:43:26;3.70;;;2.47;;
11675;SDS011;5894;42.768;23.404;2023-08-06T08:45:54;2.70;;;2.20;;
11675;SDS011;5894;42.768;23.404;2023-08-06T08:48:24;3.30;;;2.28;;
11675;SDS011;5894;42.768;23.404;2023-08-06T08:50:52;3.38;;;2.35;;
11675;SDS011;5894;42.768;23.404;2023-08-06T08:53:19;8.38;;;2.72;;
11675;SDS011;5894;42.768;23.404;2023-08-06T08:55:48;3.97;;;2.50;;
11675;SDS011;5894;42.768;23.404;2023-08-06T08:58:17;2.60;;;2.33;;
11675;SDS011;5894;42.768;23.404;2023-08-06T09:00:45;2.58;;;2.20;;
11675;SDS011;5894;42.768;23.404;2023-08-06T09:03:13;2.83;;;2.50;;
11675;SDS011;5894;42.768;23.404;2023-08-06T09:05:41;4.82;;;2.65;;
11675;SDS011;5894;42.768;23.404;2023-08-06T09:08:11;7.55;;;2.60;;
11675;SDS011;5894;42.768;23.404;2023-08-06T09:10:44;3.83;;;2.30;;
11675;SDS011;5894;42.768;23.404;2023-08-06T09:13:14;2.95;;;2.70;;
11675;SDS011;5894;42.768;23.404;2023-08-06T09:15:43;2.83;;;2.35;;
11675;SDS011;5894;42.768;23.404;2023-08-06T09:18:11;3.25;;;2.80;;
11675;SDS011;5894;42.768;23.404;2023-08-06T09:20:39;4.05;;;3.10;;
11675;SDS011;5894;42.768;23.404;2023-08-06T09:23:09;2.63;;;2.42;;
11675;SDS011;5894;42.768;23.404;2023-08-06T09:25:37;2.60;;;2.40;;
11675;SDS011;5894;42.768;23.404;2023-08-06T09:28:07;3.20;;;2.72;;
11675;SDS011;5894;42.768;23.404;2023-08-06T09:30:35;2.75;;;2.33;;
11675;SDS011;5894;42.768;23.404;2023-08-06T09:33:04;3.50;;;2.60;;
11675;SDS011;5894;42.768;23.404;2023-08-06T09:35:38;4.55;;;2.55;;
11675;SDS011;5894;42.768;23.404;2023-08-06T09:38:06;2.67;;;2.47;;
11675;SDS011;5894;42.768;23.404;2023-08-06T09:40:34;8.20;;;2.78;;
11675;SDS011;5894;42.768;23.404;2023-08-06T09:43:01;3.08;;;2.60;;
11675;SDS011;5894;42.768;23.404;2023-08-06T09:45:28;3.03;;;2.55;;
11675;SDS011;5894;42.768;23.404;2023-08-06T09:47:57;3.13;;;2.60;;
11675;SDS011;5894;42.768;23.404;2023-08-06T09:50:28;3.97;;;2.75;;
11675;SDS011;5894;42.768;23.404;2023-08-06T09:52:57;3.17;;;2.88;;
11675;SDS011;5894;42.768;23.404;2023-08-06T09:55:25;4.53;;;2.65;;
11675;SDS011;5894;42.768;23.404;2023-08-06T09:57:52;3.42;;;2.50;;
11675;SDS011;5894;42.768;23.404;2023-08-06T10:00:20;3.40;;;2.70;;
11675;SDS011;5894;42.768;23.404;2023-08-06T10:02:48;3.13;;;2.83;;
11675;SDS011;5894;42.768;23.404;2023-08-06T10:05:20;3.13;;;2.47;;
11675;SDS011;5894;42.768;23.404;2023-08-06T10:07:49;3.20;;;2.40;;
11675;SDS011;5894;42.768;23.404;2023-08-06T10:10:17;3.13;;;2.45;;
11675;SDS011;5894;42.768;23.404;2023-08-06T10:12:46;2.95;;;2.50;;
11675;SDS011;5894;42.768;23.404;2023-08-06T10:15:23;2.63;;;2.40;;
11675;SDS011;5894;42.768;23.404;2023-08-06T10:17:54;3.20;;;2.90;;
11675;SDS011;5894;42.768;23.404;2023-08-06T10:20:23;4.00;;;2.70;;
11675;SDS011;5894;42.768;23.404;2023-08-06T10:23:01;2.80;;;2.60;;
11675;SDS011;5894;42.768;23.404;2023-08-06T10:25:31;3.85;;;2.78;;
11675;SDS011;5894;42.768;23.404;2023-08-06T10:27:59;3.47;;;2.97;;
11675;SDS011;5894;42.768;23.404;2023-08-06T10:30:29;3.47;;;2.80;;
11675;SDS011;5894;42.768;23.404;2023-08-06T10:32:58;5.07;;;2.38;;
11675;SDS011;5894;42.768;23.404;2023-08-06T10:35:35;2.80;;;2.58;;
11675;SDS011;5894;42.768;23.404;2023-08-06T10:38:05;2.75;;;2.55;;
11675;SDS011;5894;42.768;23.404;2023-08-06T10:40:34;3.22;;;2.22;;
11675;SDS011;5894;42.768;23.404;2023-08-06T10:43:01;4.68;;;2.58;;
11675;SDS011;5894;42.768;23.404;2023-08-06T10:45:34;2.65;;;2.10;;
11675;SDS011;5894;42.768;23.404;2023-08-06T10:48:02;2.72;;;2.45;;
11675;SDS011;5894;42.768;23.404;2023-08-06T10:50:30;3.13;;;2.83;;
11675;SDS011;5894;42.768;23.404;2023-08-06T10:53:00;3.20;;;2.90;;
11675;SDS011;5894;42.768;23.404;2023-08-06T10:55:33;2.90;;;2.70;;
11675;SDS011;5894;42.768;23.404;2023-08-06T10:58:03;4.07;;;2.75;;
11675;SDS011;5894;42.768;23.404;2023-08-06T11:00:30;4.68;;;3.17;;
11675;SDS011;5894;42.768;23.404;2023-08-06T11:02:57;3.08;;;2.50;;
11675;SDS011;5894;42.768;23.404;2023-08-06T11:05:25;3.13;;;2.53;;
11675;SDS011;5894;42.768;23.404;2023-08-06T11:07:52;6.95;;;2.58;;
11675;SDS011;5894;42.768;23.404;2023-08-06T11:10:21;2.30;;;2.10;;
11675;SDS011;5894;42.768;23.404;2023-08-06T11:12:49;2.70;;;2.38;;
11675;SDS011;5894;42.768;23.404;2023-08-06T11:15:19;5.22;;;2.53;;
11675;SDS011;5894;42.768;23.404;2023-08-06T11:17:47;5.15;;;2.85;;
11675;SDS011;5894;42.768;23.404;2023-08-06T11:20:14;3.05;;;2.80;;
11675;SDS011;5894;42.768;23.404;2023-08-06T11:22:41;3.45;;;2.90;;
11675;SDS011;5894;42.768;23.404;2023-08-06T11:25:08;3.53;;;2.85;;
11675;SDS011;5894;42.768;23.404;2023-08-06T11:27:37;5.82;;;3.03;;
11675;SDS011;5894;42.768;23.404;2023-08-06T11:30:04;5.55;;;3.53;;
11675;SDS011;5894;42.768;23.404;2023-08-06T11:32:32;3.75;;;3.45;;
11675;SDS011;5894;42.768;23.404;2023-08-06T11:35:08;4.20;;;3.85;;
11675;SDS011;5894;42.768;23.404;2023-08-06T11:37:38;5.63;;;3.72;;
11675;SDS011;5894;42.768;23.404;2023-08-06T11:40:10;3.90;;;3.60;;
11675;SDS011;5894;42.768;23.404;2023-08-06T11:42:38;4.93;;;4.28;;
11675;SDS011;5894;42.768;23.404;2023-08-06T11:45:06;5.22;;;3.95;;
11675;SDS011;5894;42.768;23.404;2023-08-06T11:47:37;4.43;;;4.03;;
11675;SDS011;5894;42.768;23.404;2023-08-06T11:50:05;4.38;;;3.72;;
11675;SDS011;5894;42.768;23.404;2023-08-06T11:52:33;7.38;;;4.28;;
11675;SDS011;5894;42.768;23.404;2023-08-06T11:55:00;5.38;;;3.70;;
11675;SDS011;5894;42.768;23.404;2023-08-06T11:57:31;5.53;;;3.40;;
11675;SDS011;5894;42.768;23.404;2023-08-06T12:00:05;3.25;;;3.00;;
11675;SDS011;5894;42.768;23.404;2023-08-06T12:02:43;4.65;;;3.08;;
11675;SDS011;5894;42.768;23.404;2023-08-06T12:05:11;6.03;;;2.90;;
11675;SDS011;5894;42.768;23.404;2023-08-06T12:07:40;3.55;;;3.25;;
11675;SDS011;5894;42.768;23.404;2023-08-06T12:10:08;6.20;;;3.35;;
11675;SDS011;5894;42.768;23.404;2023-08-06T12:12:35;3.45;;;3.17;;
11675;SDS011;5894;42.768;23.404;2023-08-06T12:15:06;4.72;;;3.70;;
11675;SDS011;5894;42.768;23.404;2023-08-06T12:17:35;4.70;;;3.50;;
11675;SDS011;5894;42.768;23.404;2023-08-06T12:20:03;3.33;;;3.03;;
11675;SDS011;5894;42.768;23.404;2023-08-06T12:22:31;4.18;;;3.78;;
11675;SDS011;5894;42.768;23.404;2023-08-06T12:25:00;4.63;;;4.20;;
11675;SDS011;5894;42.768;23.404;2023-08-06T12:27:29;4.28;;;3.75;;
11675;SDS011;5894;42.768;23.404;2023-08-06T12:29:56;3.40;;;3.10;;
11675;SDS011;5894;42.768;23.404;2023-08-06T12:32:25;3.92;;;3.60;;
11675;SDS011;5894;42.768;23.404;2023-08-06T12:34:52;3.65;;;3.35;;
11675;SDS011;5894;42.768;23.404;2023-08-06T12:37:19;4.25;;;3.28;;
11675;SDS011;5894;42.768;23.404;2023-08-06T12:39:46;6.47;;;2.97;;
11675;SDS011;5894;42.768;23.404;2023-08-06T12:42:13;4.05;;;2.70;;
11675;SDS011;5894;42.768;23.404;2023-08-06T12:44:40;3.22;;;2.70;;
11675;SDS011;5894;42.768;23.404;2023-08-06T12:47:07;4.13;;;2.88;;
11675;SDS011;5894;42.768;23.404;2023-08-06T12:49:36;2.58;;;2.35;;
11675;SDS011;5894;42.768;23.404;2023-08-06T12:52:03;3.00;;;2.80;;
11675;SDS011;5894;42.768;23.404;2023-08-06T12:54:32;3.30;;;3.00;;
11675;SDS011;5894;42.768;23.404;2023-08-06T12:57:02;3.35;;;3.00;;
11675;SDS011;5894;42.768;23.404;2023-08-06T12:59:30;3.78;;;3.08;;
11675;SDS011;5894;42.768;23.404;2023-08-06T13:01:58;5.28;;;2.92;;
11675;SDS011;5894;42.768;23.404;2023-08-06T13:04:25;3.75;;;2.85;;
11675;SDS011;5894;42.768;23.404;2023-08-06T13:06:54;3.25;;;2.70;;
11675;SDS011;5894;42.768;23.404;2023-08-06T13:09:21;3.10;;;2.80;;
11675;SDS011;5894;42.768;23.404;2023-08-06T13:11:48;4.25;;;2.72;;
11675;SDS011;5894;42.768;23.404;2023-08-06T13:14:16;3.80;;;3.10;;
11675;SDS011;5894;42.768;23.404;2023-08-06T13:16:43;3.28;;;2.97;;
11675;SDS011;5894;42.768;23.404;2023-08-06T13:19:11;3.22;;;2.92;;
11675;SDS011;5894;42.768;23.404;2023-08-06T13:21:58;3.30;;;2.95;;
11675;SDS011;5894;42.768;23.404;2023-08-06T13:24:29;3.75;;;3.35;;
11675;SDS011;5894;42.768;23.404;2023-08-06T13:26:56;3.10;;;2.80;;
11675;SDS011;5894;42.768;23.404;2023-08-06T13:29:24;3.75;;;3.00;;
11675;SDS011;5894;42.768;23.404;2023-08-06T13:31:51;3.92;;;3.00;;
11675;SDS011;5894;42.768;23.404;2023-08-06T13:34:18;4.47;;;3.15;;
11675;SDS011;5894;42.768;23.404;2023-08-06T13:36:46;4.55;;;3.00;;
11675;SDS011;5894;42.768;23.404;2023-08-06T13:39:14;3.33;;;3.03;;
11675;SDS011;5894;42.768;23.404;2023-08-06T13:41:42;4.22;;;3.10;;
11675;SDS011;5894;42.768;23.404;2023-08-06T13:44:10;4.55;;;3.22;;
11675;SDS011;5894;42.768;23.404;2023-08-06T13:46:39;3.50;;;3.20;;
11675;SDS011;5894;42.768;23.404;2023-08-06T13:49:07;5.45;;;3.47;;
11675;SDS011;5894;42.768;23.404;2023-08-06T13:51:34;4.68;;;3.47;;
11675;SDS011;5894;42.768;23.404;2023-08-06T13:54:02;3.22;;;2.92;;
11675;SDS011;5894;42.768;23.404;2023-08-06T13:56:31;4.10;;;3.20;;
11675;SDS011;5894;42.768;23.404;2023-08-06T13:58:59;4.97;;;3.42;;
11675;SDS011;5894;42.768;23.404;2023-08-06T14:01:26;3.80;;;3.20;;
11675;SDS011;5894;42.768;23.404;2023-08-06T14:03:53;4.15;;;3.00;;
11675;SDS011;5894;42.768;23.404;2023-08-06T14:06:20;5.53;;;3.50;;
11675;SDS011;5894;42.768;23.404;2023-08-06T14:08:47;3.67;;;3.10;;
11675;SDS011;5894;42.768;23.404;2023-08-06T14:11:14;3.50;;;3.20;;
11675;SDS011;5894;42.768;23.404;2023-08-06T14:13:43;3.67;;;3.13;;
11675;SDS011;5894;42.768;23.404;2023-08-06T14:16:10;3.80;;;3.25;;
11675;SDS011;5894;42.768;23.404;2023-08-06T14:18:37;5.05;;;3.50;;
11675;SDS011;5894;42.768;23.404;2023-08-06T14:21:04;3.00;;;2.80;;
11675;SDS011;5894;42.768;23.404;2023-08-06T14:23:31;4.30;;;3.45;;
11675;SDS011;5894;42.768;23.404;2023-08-06T14:25:58;5.28;;;4.10;;
11675;SDS011;5894;42.768;23.404;2023-08-06T14:28:25;4.10;;;3.22;;
11675;SDS011;5894;42.768;23.404;2023-08-06T14:30:54;7.40;;;5.30;;
11675;SDS011;5894;42.768;23.404;2023-08-06T14:33:21;4.50;;;4.10;;
11675;SDS011;5894;42.768;23.404;2023-08-06T14:35:48;4.78;;;4.15;;
11675;SDS011;5894;42.768;23.404;2023-08-06T14:38:15;3.95;;;3.58;;
11675;SDS011;5894;42.768;23.404;2023-08-06T14:40:43;4.68;;;3.38;;
11675;SDS011;5894;42.768;23.404;2023-08-06T14:43:10;4.25;;;3.30;;
11675;SDS011;5894;42.768;23.404;2023-08-06T14:45:37;3.80;;;3.40;;
11675;SDS011;5894;42.768;23.404;2023-08-06T14:48:07;4.15;;;3.17;;
11675;SDS011;5894;42.768;23.404;2023-08-06T14:50:34;3.50;;;3.20;;
11675;SDS011;5894;42.768;23.404;2023-08-06T14:53:02;3.92;;;3.20;;
11675;SDS011;5894;42.768;23.404;2023-08-06T14:55:30;4.97;;;3.10;;